createdAt,value
2017-06-17T00:00:36.313Z,3.10
2017-06-17T00:03:04.748Z,2.87
2017-06-17T00:05:32.391Z,3.80
2017-06-17T00:08:00.079Z,2.87
2017-06-17T00:10:27.698Z,3.17
2017-06-17T00:12:55.349Z,2.50
2017-06-17T00:15:23.005Z,3.30
2017-06-17T00:17:50.650Z,3.30
2017-06-17T00:20:19.102Z,3.73
2017-06-17T00:22:46.744Z,3.10
2017-06-17T00:25:14.379Z,4.20
2017-06-17T00:27:42.033Z,3.30
2017-06-17T00:30:09.658Z,2.73
2017-06-17T00:32:37.350Z,3.40
2017-06-17T00:35:05.741Z,2.87
2017-06-17T00:37:33.370Z,2.67
2017-06-17T00:40:01.040Z,2.43
2017-06-17T00:42:29.446Z,5.63
2017-06-17T00:44:57.114Z,3.03
2017-06-17T00:47:24.748Z,3.00
2017-06-17T00:49:53.211Z,3.40
2017-06-17T00:52:20.871Z,3.00
2017-06-17T00:54:48.508Z,3.20
2017-06-17T00:57:16.173Z,2.77
2017-06-17T00:59:43.793Z,3.43
2017-06-17T01:02:11.443Z,3.17
2017-06-17T01:04:39.880Z,2.97
2017-06-17T01:07:07.516Z,3.10
2017-06-17T01:09:35.199Z,3.90
2017-06-17T01:12:02.837Z,4.10
2017-06-17T01:14:30.483Z,3.17
2017-06-17T01:16:58.164Z,4.10
2017-06-17T01:19:25.799Z,3.00
2017-06-17T01:21:53.488Z,3.57
2017-06-17T01:24:21.131Z,3.20
2017-06-17T01:26:48.780Z,4.80
2017-06-17T01:29:16.464Z,2.90
2017-06-17T01:31:44.087Z,4.20
2017-06-17T01:34:12.521Z,3.30
2017-06-17T01:36:40.159Z,3.50
2017-06-17T01:39:07.794Z,3.70
2017-06-17T01:41:36.240Z,3.30
2017-06-17T01:44:03.865Z,2.90
2017-06-17T01:46:31.578Z,3.17
2017-06-17T01:48:59.198Z,3.40
2017-06-17T01:51:26.830Z,3.07
2017-06-17T01:53:54.519Z,3.97
2017-06-17T01:56:22.179Z,4.13
2017-06-17T01:58:49.864Z,2.20
2017-06-17T02:01:17.503Z,3.10
2017-06-17T02:03:45.148Z,3.70
2017-06-17T02:06:12.830Z,3.37
2017-06-17T02:08:40.474Z,4.27
2017-06-17T02:11:08.161Z,2.70
2017-06-17T02:13:35.799Z,3.00
2017-06-17T02:16:03.428Z,2.90
2017-06-17T02:18:31.117Z,3.37
2017-06-17T02:21:04.502Z,3.83
2017-06-17T02:23:32.961Z,3.87
2017-06-17T02:26:00.604Z,3.40
2017-06-17T02:28:28.243Z,3.33
2017-06-17T02:30:55.899Z,3.77
2017-06-17T02:33:23.588Z,3.20
2017-06-17T02:35:51.210Z,3.50
2017-06-17T02:38:18.860Z,3.00
2017-06-17T02:40:46.524Z,3.40
2017-06-17T02:43:14.141Z,2.80
2017-06-17T02:45:41.858Z,3.97
2017-06-17T02:48:09.481Z,2.90
2017-06-17T02:50:37.151Z,3.10
2017-06-17T02:53:04.787Z,3.50
2017-06-17T02:55:32.428Z,3.53
2017-06-17T02:58:00.097Z,3.93
2017-06-17T03:00:27.739Z,3.00
2017-06-17T03:02:55.392Z,4.30
2017-06-17T03:05:23.031Z,3.83
2017-06-17T03:07:51.485Z,3.93
2017-06-17T03:10:19.115Z,5.03
2017-06-17T03:12:46.781Z,3.20
2017-06-17T03:15:14.442Z,3.50
2017-06-17T03:17:42.069Z,5.07
2017-06-17T03:20:09.740Z,4.00
2017-06-17T03:22:37.384Z,2.50
2017-06-17T03:25:05.818Z,3.20
2017-06-17T03:27:33.441Z,3.33
2017-06-17T03:30:01.089Z,3.00
2017-06-17T03:32:28.740Z,3.43
2017-06-17T03:34:57.150Z,3.53
2017-06-17T03:37:24.816Z,4.10
2017-06-17T03:39:52.437Z,3.37
2017-06-17T03:42:20.135Z,3.40
2017-06-17T03:44:47.776Z,4.13
2017-06-17T03:47:15.404Z,3.47
2017-06-17T03:49:43.079Z,3.40
2017-06-17T03:52:11.482Z,4.10
2017-06-17T03:54:39.189Z,4.40
2017-06-17T03:57:06.827Z,2.80
2017-06-17T03:59:34.464Z,3.70
2017-06-17T04:02:02.133Z,3.13
2017-06-17T04:04:29.779Z,2.93
2017-06-17T04:06:57.450Z,3.60
2017-06-17T04:09:25.081Z,4.10
2017-06-17T04:11:52.723Z,3.33
2017-06-17T04:14:20.409Z,3.87
2017-06-17T04:16:48.052Z,2.90
2017-06-17T04:19:15.751Z,4.83
2017-06-17T04:21:44.160Z,4.43
2017-06-17T04:24:11.815Z,4.40
2017-06-17T04:26:39.480Z,3.70
2017-06-17T04:29:07.131Z,3.90
2017-06-17T04:31:34.786Z,3.90
2017-06-17T04:34:02.409Z,3.80
2017-06-17T04:36:30.077Z,3.87
2017-06-17T04:38:57.728Z,3.53
2017-06-17T04:41:25.364Z,3.47
2017-06-17T04:43:53.037Z,4.30
2017-06-17T04:46:20.662Z,3.60
2017-06-17T04:48:48.340Z,3.50
2017-06-17T04:51:15.962Z,3.47
2017-06-17T04:53:46.906Z,3.97
2017-06-17T04:56:14.658Z,3.93
2017-06-17T04:58:42.285Z,4.33
2017-06-17T05:01:10.076Z,3.43
2017-06-17T05:03:37.709Z,5.23
2017-06-17T05:06:05.384Z,4.30
2017-06-17T05:08:33.010Z,4.30
2017-06-17T05:11:00.660Z,4.60
2017-06-17T05:13:28.319Z,3.50
2017-06-17T05:15:55.972Z,3.83
2017-06-17T05:18:23.671Z,3.87
2017-06-17T05:20:51.299Z,3.77
2017-06-17T05:23:18.943Z,4.00
2017-06-17T05:25:47.383Z,4.10
2017-06-17T05:28:15.005Z,3.10
2017-06-17T05:30:42.692Z,4.43
2017-06-17T05:33:10.324Z,3.60
2017-06-17T05:35:37.967Z,3.70
2017-06-17T05:38:06.391Z,4.43
2017-06-17T05:40:34.027Z,3.50
2017-06-17T05:43:01.684Z,3.73
2017-06-17T05:45:29.331Z,4.57
2017-06-17T05:47:57.771Z,3.57
2017-06-17T05:50:25.398Z,3.50
2017-06-17T05:52:53.029Z,3.90
2017-06-17T05:55:20.701Z,4.10
2017-06-17T05:57:48.329Z,4.17
2017-06-17T06:00:15.981Z,3.30
2017-06-17T06:02:43.601Z,4.17
2017-06-17T06:05:11.269Z,3.53
2017-06-17T06:07:39.087Z,3.90
2017-06-17T06:10:06.875Z,3.20
2017-06-17T06:12:34.563Z,3.37
2017-06-17T06:15:02.204Z,3.07
2017-06-17T06:17:29.888Z,3.40
2017-06-17T06:19:57.525Z,2.20
2017-06-17T06:22:25.964Z,3.23
2017-06-17T06:24:53.611Z,4.50
2017-06-17T06:27:21.237Z,3.60
2017-06-17T06:29:49.659Z,3.27
2017-06-17T06:32:17.283Z,2.60
2017-06-17T06:34:44.936Z,3.30
2017-06-17T06:37:13.325Z,2.97
2017-06-17T06:39:41.461Z,2.70
2017-06-17T06:42:09.151Z,3.87
2017-06-17T06:44:37.559Z,2.70
2017-06-17T06:47:05.218Z,3.10
2017-06-17T06:49:32.859Z,2.77
2017-06-17T06:52:00.879Z,3.23
2017-06-17T06:54:29.409Z,2.47
2017-06-17T06:56:57.862Z,3.33
2017-06-17T06:59:25.494Z,3.10
2017-06-17T07:01:53.122Z,3.63
2017-06-17T07:04:20.773Z,3.13
2017-06-17T07:06:49.170Z,2.77
2017-06-17T07:09:16.840Z,3.10
2017-06-17T07:11:44.540Z,2.17
2017-06-17T07:14:12.238Z,2.23
2017-06-17T07:16:39.876Z,2.87
2017-06-17T07:19:07.580Z,2.70
2017-06-17T07:21:35.253Z,2.73
2017-06-17T07:24:05.905Z,2.53
2017-06-17T07:26:33.585Z,2.60
2017-06-17T07:29:01.213Z,2.37
2017-06-17T07:31:28.896Z,2.57
2017-06-17T07:33:56.868Z,2.90
2017-06-17T07:36:24.632Z,2.53
2017-06-17T07:38:52.450Z,2.87
2017-06-17T07:41:20.200Z,1.93
2017-06-17T07:43:48.008Z,2.47
2017-06-17T07:46:15.737Z,2.33
2017-06-17T07:48:43.574Z,2.50
2017-06-17T07:51:11.338Z,2.33
2017-06-17T07:53:39.097Z,2.43
2017-06-17T07:56:06.907Z,2.40
2017-06-17T07:58:34.724Z,2.40
2017-06-17T08:01:02.586Z,2.00
2017-06-17T08:03:30.456Z,2.00
2017-06-17T08:05:58.321Z,2.50
2017-06-17T08:08:26.182Z,2.20
2017-06-17T08:10:54.060Z,2.00
2017-06-17T08:13:21.915Z,2.23
2017-06-17T08:15:49.793Z,2.00
2017-06-17T08:18:17.651Z,1.93
2017-06-17T08:20:45.497Z,1.70
2017-06-17T08:23:13.985Z,2.57
2017-06-17T08:25:41.749Z,1.80
2017-06-17T08:28:09.370Z,2.30
2017-06-17T08:30:37.404Z,2.30
2017-06-17T08:33:05.861Z,1.93
2017-06-17T08:35:33.538Z,1.90
2017-06-17T08:38:01.390Z,2.00
2017-06-17T08:40:29.071Z,2.13
2017-06-17T08:42:56.837Z,1.70
2017-06-17T08:45:24.631Z,2.17
2017-06-17T08:47:53.213Z,2.17
2017-06-17T08:50:21.734Z,2.20
2017-06-17T08:52:49.550Z,2.10
2017-06-17T08:55:18.070Z,1.93
2017-06-17T08:57:45.914Z,1.83
2017-06-17T09:00:13.693Z,2.33
2017-06-17T09:02:41.451Z,2.10
2017-06-17T09:05:09.272Z,1.60
2017-06-17T09:07:37.042Z,2.00
2017-06-17T09:10:06.024Z,1.87
2017-06-17T09:12:33.800Z,1.10
2017-06-17T09:15:01.623Z,1.70
2017-06-17T09:17:29.403Z,1.43
2017-06-17T09:19:57.166Z,1.57
2017-06-17T09:22:24.987Z,1.63
2017-06-17T09:24:53.525Z,1.60
2017-06-17T09:27:21.329Z,1.40
2017-06-17T09:29:49.875Z,1.73
2017-06-17T09:32:17.679Z,2.07
2017-06-17T09:34:46.232Z,2.07
2017-06-17T09:37:14.004Z,1.40
2017-06-17T09:39:41.810Z,2.17
2017-06-17T09:42:09.579Z,1.60
2017-06-17T09:44:38.922Z,1.50
2017-06-17T09:47:07.044Z,2.20
2017-06-17T09:49:34.695Z,1.80
2017-06-17T09:52:03.127Z,1.93
2017-06-17T09:54:30.750Z,2.30
2017-06-17T09:56:58.419Z,1.90
2017-06-17T09:59:26.067Z,1.67
2017-06-17T10:01:53.720Z,1.57
2017-06-17T10:04:22.137Z,1.60
2017-06-17T10:06:49.765Z,1.50
2017-06-17T10:09:17.451Z,1.77
2017-06-17T10:11:45.093Z,1.83
2017-06-17T10:14:12.736Z,1.70
2017-06-17T10:16:41.146Z,1.43
2017-06-17T10:19:08.774Z,1.60
2017-06-17T10:21:36.461Z,1.40
2017-06-17T10:24:04.091Z,1.60
2017-06-17T10:26:33.267Z,1.37
2017-06-17T10:29:00.900Z,1.43
2017-06-17T10:31:28.606Z,1.60
2017-06-17T10:33:56.298Z,1.73
2017-06-17T10:36:23.932Z,1.37
2017-06-17T10:38:52.380Z,2.00
2017-06-17T10:41:20.015Z,1.37
2017-06-17T10:43:47.664Z,1.50
2017-06-17T10:46:15.323Z,1.70
2017-06-17T10:48:42.957Z,1.90
2017-06-17T10:51:10.628Z,1.80
2017-06-17T10:53:39.031Z,1.80
2017-06-17T10:56:06.707Z,1.50
2017-06-17T10:58:34.326Z,2.00
2017-06-17T11:01:01.955Z,2.23
2017-06-17T11:03:29.606Z,1.53
2017-06-17T11:05:57.239Z,2.03
2017-06-17T11:08:24.891Z,2.03
2017-06-17T11:10:53.278Z,1.63
2017-06-17T11:13:20.954Z,1.60
2017-06-17T11:15:48.744Z,1.40
2017-06-17T11:18:16.383Z,1.50
2017-06-17T11:20:44.048Z,1.30
2017-06-17T11:23:12.037Z,1.57
2017-06-17T11:25:39.719Z,1.77
2017-06-17T11:28:07.464Z,1.10
2017-06-17T11:30:35.138Z,1.30
2017-06-17T11:33:02.775Z,1.60
2017-06-17T11:35:30.408Z,1.10
2017-06-17T11:37:58.082Z,1.50
2017-06-17T11:40:25.874Z,1.50
2017-06-17T11:42:53.530Z,1.30
2017-06-17T11:45:21.216Z,1.50
2017-06-17T11:47:49.065Z,1.00
2017-06-17T11:50:16.726Z,1.60
2017-06-17T11:52:44.526Z,1.43
2017-06-17T11:55:12.942Z,1.27
2017-06-17T11:57:40.586Z,1.33
2017-06-17T12:00:09.001Z,1.40
2017-06-17T12:02:36.633Z,1.40
2017-06-17T12:05:04.301Z,1.50
2017-06-17T12:07:31.949Z,1.37
2017-06-17T12:09:59.570Z,1.10
2017-06-17T12:12:27.235Z,1.70
2017-06-17T12:14:54.859Z,1.40
2017-06-17T12:17:22.519Z,1.87
2017-06-17T12:19:50.145Z,1.30
2017-06-17T12:22:18.612Z,1.90
2017-06-17T12:24:46.233Z,1.07
2017-06-17T12:27:13.868Z,1.30
2017-06-17T12:29:41.525Z,1.50
2017-06-17T12:32:09.157Z,1.40
2017-06-17T12:34:36.825Z,1.40
2017-06-17T12:37:05.233Z,1.50
2017-06-17T12:39:32.926Z,1.00
2017-06-17T12:42:00.565Z,1.20
2017-06-17T12:44:28.204Z,1.77
2017-06-17T12:46:55.875Z,1.20
2017-06-17T12:49:23.509Z,1.60
2017-06-17T12:51:51.242Z,1.77
2017-06-17T12:54:18.927Z,1.60
2017-06-17T12:56:46.589Z,1.80
2017-06-17T12:59:14.431Z,1.27
2017-06-17T13:01:42.196Z,1.63
2017-06-17T13:04:09.888Z,1.80
2017-06-17T13:06:37.522Z,1.10
2017-06-17T13:09:05.285Z,1.63
2017-06-17T13:11:32.905Z,1.70
2017-06-17T13:14:00.632Z,1.60
2017-06-17T13:16:28.263Z,1.47
2017-06-17T13:18:55.889Z,1.73
2017-06-17T13:21:23.817Z,2.37
2017-06-17T13:23:51.680Z,3.00
2017-06-17T13:26:20.276Z,1.30
2017-06-17T13:28:49.036Z,1.50
2017-06-17T13:31:16.705Z,1.83
2017-06-17T13:33:44.409Z,1.77
2017-06-17T13:36:12.793Z,1.83
2017-06-17T13:38:40.605Z,2.17
2017-06-17T13:41:08.294Z,1.47
2017-06-17T13:43:36.045Z,1.60
2017-06-17T13:46:03.717Z,1.67
2017-06-17T13:48:31.561Z,1.60
2017-06-17T13:50:59.219Z,1.67
2017-06-17T13:53:27.601Z,1.77
2017-06-17T13:55:55.250Z,1.60
2017-06-17T13:58:23.215Z,1.93
2017-06-17T14:00:50.995Z,2.43
2017-06-17T14:03:18.670Z,1.60
2017-06-17T14:05:46.330Z,1.70
2017-06-17T14:08:13.953Z,2.00
2017-06-17T14:10:41.743Z,1.57
2017-06-17T14:13:09.434Z,1.60
2017-06-17T14:15:37.092Z,2.17
2017-06-17T14:18:04.936Z,1.57
2017-06-17T14:20:32.717Z,2.10
2017-06-17T14:23:00.489Z,1.80
2017-06-17T14:25:28.152Z,1.30
2017-06-17T14:27:55.996Z,1.73
2017-06-17T14:30:23.963Z,1.80
2017-06-17T14:32:51.830Z,2.20
2017-06-17T14:35:19.615Z,1.80
2017-06-17T14:37:47.277Z,2.53
2017-06-17T14:40:14.925Z,1.90
2017-06-17T14:42:42.684Z,1.63
2017-06-17T14:45:10.443Z,2.20
2017-06-17T14:47:38.069Z,1.90
2017-06-17T14:50:05.884Z,1.83
2017-06-17T14:52:33.525Z,1.80
2017-06-17T14:55:01.160Z,1.60
2017-06-17T14:57:28.876Z,1.90
2017-06-17T14:59:56.623Z,1.63
2017-06-17T15:02:24.293Z,2.13
2017-06-17T15:04:51.957Z,1.80
2017-06-17T15:07:19.625Z,1.90
2017-06-17T15:09:47.252Z,1.47
2017-06-17T15:12:15.031Z,1.83
2017-06-17T15:14:42.793Z,1.80
2017-06-17T15:17:10.456Z,1.53
2017-06-17T15:19:38.221Z,1.40
2017-06-17T15:22:05.842Z,1.90
2017-06-17T15:24:33.570Z,1.53
2017-06-17T15:27:01.412Z,1.67
2017-06-17T15:29:29.060Z,1.90
2017-06-17T15:31:56.764Z,1.70
2017-06-17T15:34:24.585Z,2.10
2017-06-17T15:36:52.262Z,1.73
2017-06-17T15:39:19.971Z,1.87
2017-06-17T15:41:48.507Z,1.77
2017-06-17T15:44:16.191Z,1.63
2017-06-17T15:46:43.935Z,5.47
2017-06-17T15:49:11.701Z,2.90
2017-06-17T15:51:39.384Z,2.97
2017-06-17T15:54:07.227Z,2.23
2017-06-17T15:56:35.110Z,2.20
2017-06-17T15:59:02.857Z,1.63
2017-06-17T16:01:30.513Z,1.80
2017-06-17T16:03:58.182Z,2.07
2017-06-17T16:06:25.930Z,2.10
2017-06-17T16:08:53.609Z,2.10
2017-06-17T16:11:21.237Z,2.17
2017-06-17T16:13:48.949Z,2.43
2017-06-17T16:16:16.573Z,2.10
2017-06-17T16:18:44.248Z,2.20
2017-06-17T16:21:12.022Z,2.67
2017-06-17T16:23:39.699Z,2.07
2017-06-17T16:26:07.553Z,1.40
2017-06-17T16:28:35.187Z,1.43
2017-06-17T16:31:02.990Z,2.00
2017-06-17T16:33:30.618Z,1.87
2017-06-17T16:35:58.323Z,1.93
2017-06-17T16:38:25.949Z,1.93
2017-06-17T16:40:53.724Z,2.80
2017-06-17T16:43:21.389Z,1.80
2017-06-17T16:45:49.629Z,1.67
2017-06-17T16:48:17.426Z,1.70
2017-06-17T16:50:45.947Z,1.23
2017-06-17T16:53:14.614Z,1.70
2017-06-17T16:55:42.444Z,1.77
2017-06-17T16:58:11.264Z,1.60
2017-06-17T17:00:39.235Z,1.90
2017-06-17T17:03:07.097Z,1.73
2017-06-17T17:05:35.064Z,2.23
2017-06-17T17:08:03.867Z,2.40
2017-06-17T17:10:32.652Z,2.20
2017-06-17T17:13:00.509Z,2.17
2017-06-17T17:15:29.696Z,2.13
2017-06-17T17:17:57.786Z,2.30
2017-06-17T17:20:25.646Z,2.17
2017-06-17T17:22:53.622Z,2.70
2017-06-17T17:25:21.370Z,2.20
2017-06-17T17:27:49.297Z,2.30
2017-06-17T17:30:17.114Z,2.07
2017-06-17T17:32:45.060Z,2.07
2017-06-17T17:35:12.833Z,1.80
2017-06-17T17:37:40.596Z,1.90
2017-06-17T17:40:08.282Z,1.90
2017-06-17T17:42:35.932Z,2.53
2017-06-17T17:45:03.682Z,1.70
2017-06-17T17:47:31.447Z,1.93
2017-06-17T17:49:59.069Z,2.03
2017-06-17T17:52:26.810Z,1.87
2017-06-17T17:54:54.526Z,1.83
2017-06-17T17:57:22.439Z,1.93
2017-06-17T17:59:50.836Z,2.00
2017-06-17T18:02:19.393Z,2.27
2017-06-17T18:04:47.231Z,2.60
2017-06-17T18:09:54.024Z,2.60
2017-06-17T18:12:21.962Z,2.00
2017-06-17T18:14:49.602Z,2.30
2017-06-17T18:17:17.995Z,2.47
2017-06-17T18:19:45.660Z,3.07
2017-06-17T18:22:13.374Z,2.47
2017-06-17T18:24:41.031Z,2.00
2017-06-17T18:27:08.885Z,2.27
2017-06-17T18:29:36.754Z,2.20
2017-06-17T18:32:04.516Z,2.03
2017-06-17T18:34:32.178Z,2.00
2017-06-17T18:36:59.831Z,2.30
2017-06-17T18:39:27.504Z,2.10
2017-06-17T18:41:55.269Z,2.50
2017-06-17T18:44:22.909Z,2.47
2017-06-17T18:46:51.585Z,1.80
2017-06-17T18:49:20.198Z,2.40
2017-06-17T18:51:48.594Z,1.83
2017-06-17T18:54:16.546Z,2.00
2017-06-17T18:56:44.231Z,2.10
2017-06-17T18:59:11.990Z,2.13
2017-06-17T19:01:39.610Z,2.13
2017-06-17T19:04:07.398Z,2.40
2017-06-17T19:06:35.162Z,3.00
2017-06-17T19:09:02.794Z,2.57
2017-06-17T19:11:30.511Z,3.17
2017-06-17T19:13:58.252Z,2.43
2017-06-17T19:16:25.918Z,2.10
2017-06-17T19:18:53.580Z,2.03
2017-06-17T19:21:21.259Z,2.50
2017-06-17T19:23:48.915Z,2.30
2017-06-17T19:26:16.662Z,2.83
2017-06-17T19:28:44.770Z,1.73
2017-06-17T19:31:13.161Z,2.80
2017-06-17T19:33:41.593Z,2.70
2017-06-17T19:36:09.255Z,2.63
2017-06-17T19:38:36.917Z,2.10
2017-06-17T19:41:04.849Z,2.40
2017-06-17T19:43:33.769Z,2.53
2017-06-17T19:46:01.642Z,2.63
2017-06-17T19:48:29.283Z,3.27
2017-06-17T19:50:57.071Z,2.80
2017-06-17T19:53:25.043Z,2.53
2017-06-17T19:55:52.681Z,2.27
2017-06-17T19:58:20.349Z,2.33
2017-06-17T20:00:48.022Z,2.50
2017-06-17T20:03:15.641Z,2.77
2017-06-17T20:05:43.575Z,2.00
2017-06-17T20:08:11.205Z,2.17
2017-06-17T20:10:38.861Z,3.10
2017-06-17T20:13:06.492Z,3.10
2017-06-17T20:15:34.364Z,3.53
2017-06-17T20:18:02.048Z,2.70
2017-06-17T20:20:29.708Z,3.77
2017-06-17T20:22:57.452Z,2.70
2017-06-17T20:25:25.091Z,2.33
2017-06-17T20:27:52.776Z,2.70
2017-06-17T20:30:20.539Z,2.33
2017-06-17T20:32:48.318Z,2.30
2017-06-17T20:35:15.941Z,2.23
2017-06-17T20:37:43.561Z,2.00
2017-06-17T20:40:12.007Z,2.90
2017-06-17T20:42:39.681Z,2.57
2017-06-17T20:45:07.535Z,2.23
2017-06-17T20:47:35.299Z,2.20
2017-06-17T20:50:02.970Z,2.10
2017-06-17T20:52:30.637Z,2.20
2017-06-17T20:54:59.227Z,2.33
2017-06-17T20:57:26.971Z,2.90
2017-06-17T20:59:54.591Z,2.53
2017-06-17T21:02:22.293Z,3.70
2017-06-17T21:04:49.913Z,2.70
2017-06-17T21:07:17.577Z,2.60
2017-06-17T21:09:45.382Z,2.80
2017-06-17T21:12:13.011Z,2.67
2017-06-17T21:14:40.681Z,2.97
2017-06-17T21:17:08.470Z,2.70
2017-06-17T21:19:36.356Z,2.57
2017-06-17T21:22:03.977Z,2.23
2017-06-17T21:24:31.641Z,2.30
2017-06-17T21:26:59.423Z,2.40
2017-06-17T21:29:27.041Z,2.50
2017-06-17T21:31:54.699Z,2.57
2017-06-17T21:34:23.143Z,2.27
2017-06-17T21:36:50.891Z,2.83
2017-06-17T21:39:18.509Z,2.20
2017-06-17T21:41:46.236Z,2.10
2017-06-17T21:44:14.081Z,2.17
2017-06-17T21:46:41.964Z,2.60
2017-06-17T21:49:09.837Z,2.27
2017-06-17T21:51:37.590Z,2.90
2017-06-17T21:54:06.082Z,2.30
2017-06-17T21:56:35.070Z,2.97
2017-06-17T21:59:03.859Z,2.60
2017-06-17T22:01:33.781Z,2.77
2017-06-17T22:04:01.734Z,2.43
2017-06-17T22:06:29.603Z,2.97
2017-06-17T22:08:57.361Z,2.97
2017-06-17T22:11:25.245Z,3.60
2017-06-17T22:13:53.108Z,4.40
2017-06-17T22:16:20.976Z,5.20
2017-06-17T22:18:48.838Z,5.63
2017-06-17T22:21:16.711Z,5.77
2017-06-17T22:23:44.570Z,3.27
2017-06-17T22:26:12.422Z,4.70
2017-06-17T22:28:40.249Z,6.40
2017-06-17T22:31:08.075Z,8.47
2017-06-17T22:33:35.944Z,8.20
2017-06-17T22:36:03.798Z,8.00
2017-06-17T22:38:31.666Z,7.47
2017-06-17T22:40:59.541Z,8.17
2017-06-17T22:43:27.401Z,9.40
2017-06-17T22:45:55.272Z,7.30
2017-06-17T22:48:23.140Z,9.33
2017-06-17T22:50:50.999Z,8.90
2017-06-17T22:53:18.878Z,8.23
2017-06-17T22:55:46.730Z,6.47
2017-06-17T22:58:14.600Z,10.77
2017-06-17T23:00:42.472Z,10.73
2017-06-17T23:03:10.337Z,8.57
2017-06-17T23:05:38.208Z,8.80
2017-06-17T23:08:06.178Z,9.00
2017-06-17T23:10:34.034Z,9.60
2017-06-17T23:13:01.900Z,10.30
2017-06-17T23:15:29.762Z,8.90
2017-06-17T23:17:57.616Z,6.30
2017-06-17T23:20:25.512Z,6.53
2017-06-17T23:22:53.375Z,6.07
2017-06-17T23:25:21.333Z,7.50
2017-06-17T23:27:49.525Z,8.47
2017-06-17T23:30:17.384Z,5.73
2017-06-17T23:32:45.245Z,6.70
2017-06-17T23:35:13.119Z,5.30
2017-06-17T23:37:40.979Z,5.57
2017-06-17T23:40:08.854Z,8.47
2017-06-17T23:42:36.813Z,5.63
2017-06-17T23:45:04.687Z,6.50
2017-06-17T23:47:32.554Z,6.90
2017-06-17T23:50:00.430Z,6.80
2017-06-17T23:52:28.219Z,6.10
2017-06-17T23:54:56.863Z,6.83
2017-06-17T23:57:24.737Z,6.50
2017-06-17T23:59:52.603Z,6.20
